Time;durP1;ratioP1;P1;durP2;ratioP2;P2;SDS_P1;SDS_P2;PMS_P1;PMS_P2;Temp;Humidity;BMP_temperature;BMP_pressure;BME280_temperature;BME280_humidity;BME280_pressure;Samples;Min_cycle;Max_cycle;Signal;HPM_P1;HPM_P2
2023/10/14 00:02:03;;;;;;;17.08;7.07;;;;;;;;;;5024736;28;20042;-74
2023/10/14 00:04:30;;;;;;;24.35;7.85;;;;;;;;;;5019472;28;20031;-74
2023/10/14 00:06:57;;;;;;;19.50;8.30;;;;;;;;;;5027116;28;20043;-74
2023/10/14 00:09:23;;;;;;;40.40;7.15;;;;;;;;;;5027258;28;20043;-74
2023/10/14 00:11:54;;;;;;;22.30;7.80;;;;;;;;;;5027308;28;20444;-74
2023/10/14 00:14:21;;;;;;;24.15;7.38;;;;;;;;;;5019142;28;20052;-74
2023/10/14 00:16:49;;;;;;;18.48;7.00;;;;;;;;;;5018310;28;20041;-74
2023/10/14 00:19:15;;;;;;;15.90;7.13;;;;;;;;;;5020542;28;20029;-74
2023/10/14 00:21:42;;;;;;;22.42;6.95;;;;;;;;;;5022533;28;20017;-74
2023/10/14 00:24:07;;;;;;;18.42;8.13;;;;;;;;;;5003875;28;20037;-74
2023/10/14 00:26:33;;;;;;;26.38;6.25;;;;;;;;;;5028344;28;20032;-74
2023/10/14 00:31:42;;;;;;;13.45;5.50;;;;;;;;;;5022811;28;20041;-74
2023/10/14 00:34:08;;;;;;;14.10;5.15;;;;;;;;;;5024820;28;20053;-74
2023/10/14 00:36:34;;;;;;;19.55;6.70;;;;;;;;;;5024449;28;20021;-74
2023/10/14 00:39:16;;;;;;;19.67;6.75;;;;;;;;;;5028313;28;20017;-74
2023/10/14 00:41:42;;;;;;;18.92;5.97;;;;;;;;;;5018247;28;20109;-74
2023/10/14 00:44:08;;;;;;;18.10;5.85;;;;;;;;;;5023317;28;20029;-74
2023/10/14 00:46:35;;;;;;;19.17;5.85;;;;;;;;;;5020203;28;20068;-74
2023/10/14 00:49:03;;;;;;;17.13;5.82;;;;;;;;;;5021267;28;20105;-74
2023/10/14 00:51:29;;;;;;;14.32;5.10;;;;;;;;;;5025176;28;20018;-74
2023/10/14 00:54:01;;;;;;;18.27;6.35;;;;;;;;;;5026126;28;20083;-74
2023/10/14 00:56:29;;;;;;;13.95;5.38;;;;;;;;;;5025592;28;20026;-74
2023/10/14 00:58:58;;;;;;;11.93;5.50;;;;;;;;;;5022121;28;20033;-74
2023/10/14 01:01:27;;;;;;;17.10;5.82;;;;;;;;;;5026882;28;20030;-74
2023/10/14 01:03:56;;;;;;;13.65;5.40;;;;;;;;;;5024303;28;20029;-74
2023/10/14 01:06:34;;;;;;;14.82;6.20;;;;;;;;;;5020912;28;20168;-74
2023/10/14 01:09:10;;;;;;;18.77;6.07;;;;;;;;;;5023958;28;20025;-74
2023/10/14 01:11:35;;;;;;;17.92;4.93;;;;;;;;;;5025291;28;20018;-74
2023/10/14 01:14:05;;;;;;;18.30;5.32;;;;;;;;;;5024995;28;20524;-74
2023/10/14 01:16:37;;;;;;;23.75;6.03;;;;;;;;;;5024454;28;20060;-74
2023/10/14 01:19:03;;;;;;;16.83;6.28;;;;;;;;;;5041887;28;20423;-74
2023/10/14 01:21:28;;;;;;;16.17;5.55;;;;;;;;;;5044377;28;20030;-74
2023/10/14 01:23:58;;;;;;;15.27;4.88;;;;;;;;;;5040673;28;20651;-74
2023/10/14 01:26:24;;;;;;;18.30;5.07;;;;;;;;;;5040209;28;20021;-74
2023/10/14 01:28:58;;;;;;;14.38;4.78;;;;;;;;;;5044460;28;20411;-74
2023/10/14 01:33:55;;;;;;;19.40;5.28;;;;;;;;;;5045311;28;20468;-74
2023/10/14 01:36:24;;;;;;;20.52;5.78;;;;;;;;;;5044248;28;20087;-74
2023/10/14 01:38:57;;;;;;;12.48;4.50;;;;;;;;;;5041528;28;20017;-74
2023/10/14 01:41:23;;;;;;;14.80;5.20;;;;;;;;;;5040361;28;20518;-74
2023/10/14 01:43:49;;;;;;;22.67;5.15;;;;;;;;;;5046823;28;20099;-74
2023/10/14 01:46:18;;;;;;;21.27;5.63;;;;;;;;;;5043267;28;20019;-74
2023/10/14 01:48:44;;;;;;;8.73;4.60;;;;;;;;;;5039594;28;20524;-75
2023/10/14 01:51:09;;;;;;;12.35;4.75;;;;;;;;;;5041233;28;20025;-74
2023/10/14 01:53:37;;;;;;;12.15;4.03;;;;;;;;;;5038510;28;20458;-74
2023/10/14 01:56:02;;;;;;;11.23;4.57;;;;;;;;;;5032559;28;20051;-74
2023/10/14 02:00:58;;;;;;;6.10;3.00;;;;;;;;;;5046876;28;20432;-74
2023/10/14 02:03:23;;;;;;;16.70;3.88;;;;;;;;;;5049721;28;20112;-74
2023/10/14 02:05:51;;;;;;;9.38;3.53;;;;;;;;;;5046713;28;20120;-74
2023/10/14 02:08:21;;;;;;;20.25;4.43;;;;;;;;;;5042157;28;20021;-73
2023/10/14 02:10:46;;;;;;;13.17;4.13;;;;;;;;;;5050098;28;20350;-74
2023/10/14 02:13:15;;;;;;;10.50;3.63;;;;;;;;;;5041715;28;20025;-74
2023/10/14 02:15:46;;;;;;;13.07;4.18;;;;;;;;;;5043116;28;20599;-74
2023/10/14 02:18:12;;;;;;;10.60;3.45;;;;;;;;;;5035297;28;20501;-74
2023/10/14 02:20:45;;;;;;;3.13;2.30;;;;;;;;;;5027865;28;20022;-74
2023/10/14 02:23:11;;;;;;;9.30;3.20;;;;;;;;;;5011037;28;20021;-74
2023/10/14 02:25:37;;;;;;;8.52;2.90;;;;;;;;;;5022671;28;20079;-74
2023/10/14 02:28:05;;;;;;;10.60;3.63;;;;;;;;;;5010347;28;20502;-74
2023/10/14 02:30:32;;;;;;;8.45;3.33;;;;;;;;;;5024312;28;20017;-73
2023/10/14 02:32:57;;;;;;;5.07;1.15;;;;;;;;;;5026442;28;20105;-73
2023/10/14 02:35:24;;;;;;;2.92;0.80;;;;;;;;;;5023838;28;20148;-73
2023/10/14 02:37:50;;;;;;;0.47;0.32;;;;;;;;;;5028757;28;20049;-72
2023/10/14 02:40:24;;;;;;;5.57;0.47;;;;;;;;;;5023063;28;20017;-73
2023/10/14 02:42:50;;;;;;;1.42;0.43;;;;;;;;;;5027182;28;20048;-73
2023/10/14 02:45:15;;;;;;;2.58;0.50;;;;;;;;;;5026299;28;20050;-73
2023/10/14 02:47:41;;;;;;;1.98;0.32;;;;;;;;;;5025630;28;20559;-73
2023/10/14 02:50:11;;;;;;;2.42;0.40;;;;;;;;;;5024687;28;20083;-72
2023/10/14 02:52:38;;;;;;;4.80;0.40;;;;;;;;;;5023997;28;20018;-72
2023/10/14 02:55:50;;;;;;;2.17;0.38;;;;;;;;;;5025564;28;20408;-73
2023/10/14 02:57:55;;;;;;;1.50;0.40;;;;;;;;;;5022773;28;20104;-72
2023/10/14 03:00:29;;;;;;;1.65;0.47;;;;;;;;;;5024396;28;20029;-72
2023/10/14 03:03:02;;;;;;;1.83;0.30;;;;;;;;;;5026765;28;20464;-72
2023/10/14 03:08:08;;;;;;;2.05;0.57;;;;;;;;;;5024440;28;20123;-72
2023/10/14 03:10:39;;;;;;;0.80;0.75;;;;;;;;;;5020164;28;20065;-72
2023/10/14 03:13:06;;;;;;;0.43;0.30;;;;;;;;;;5028298;28;20037;-75
2023/10/14 03:15:32;;;;;;;0.20;0.17;;;;;;;;;;5018329;28;20029;-72
2023/10/14 03:17:58;;;;;;;2.83;0.50;;;;;;;;;;5023272;28;20412;-72
2023/10/14 03:22:56;;;;;;;9.10;0.65;;;;;;;;;;5025755;28;20022;-73
2023/10/14 03:25:24;;;;;;;1.02;0.40;;;;;;;;;;5025650;28;20033;-72
2023/10/14 03:27:50;;;;;;;1.30;0.43;;;;;;;;;;5016798;28;20644;-74
2023/10/14 03:30:15;;;;;;;4.38;0.80;;;;;;;;;;5014337;28;20026;-74
2023/10/14 03:32:42;;;;;;;2.47;0.57;;;;;;;;;;5014757;28;20741;-75
2023/10/14 03:35:11;;;;;;;2.75;1.02;;;;;;;;;;5016294;28;20025;-72
2023/10/14 03:37:40;;;;;;;3.95;0.88;;;;;;;;;;5017322;28;20029;-72
2023/10/14 03:42:54;;;;;;;1.20;0.75;;;;;;;;;;5014799;28;20067;-72
2023/10/14 03:45:21;;;;;;;5.80;1.10;;;;;;;;;;5017145;28;20083;-74
2023/10/14 03:47:52;;;;;;;1.13;0.60;;;;;;;;;;5018762;28;20022;-74
2023/10/14 03:50:23;;;;;;;1.25;0.55;;;;;;;;;;5021999;28;20020;-72
2023/10/14 03:52:49;;;;;;;4.05;1.00;;;;;;;;;;5019970;28;21753;-73
2023/10/14 03:55:14;;;;;;;2.72;0.70;;;;;;;;;;5024623;28;20064;-72
2023/10/14 03:57:39;;;;;;;2.60;0.73;;;;;;;;;;5024255;28;21706;-73
2023/10/14 04:00:12;;;;;;;1.90;0.50;;;;;;;;;;5025419;28;20025;-72
2023/10/14 04:02:40;;;;;;;5.90;1.20;;;;;;;;;;5024152;28;20265;-73
2023/10/14 04:05:12;;;;;;;8.80;1.30;;;;;;;;;;5028739;28;20033;-74
2023/10/14 04:07:40;;;;;;;9.65;1.30;;;;;;;;;;5027262;28;20014;-72
2023/10/14 04:10:09;;;;;;;9.63;1.35;;;;;;;;;;5022432;28;20494;-72
2023/10/14 04:12:52;;;;;;;3.13;1.10;;;;;;;;;;5020685;28;20022;-72
2023/10/14 04:15:34;;;;;;;6.75;2.13;;;;;;;;;;5025447;28;20100;-72
2023/10/14 04:18:00;;;;;;;10.27;1.67;;;;;;;;;;5025054;28;20025;-73
2023/10/14 04:20:32;;;;;;;8.68;1.65;;;;;;;;;;5025914;28;20401;-72
2023/10/14 04:22:58;;;;;;;8.27;1.88;;;;;;;;;;5021549;28;20032;-72
2023/10/14 04:25:38;;;;;;;15.82;2.20;;;;;;;;;;5025142;28;20104;-74
2023/10/14 04:30:42;;;;;;;11.57;1.48;;;;;;;;;;5022087;28;20036;-72
2023/10/14 04:35:58;;;;;;;10.00;2.28;;;;;;;;;;5025007;28;20028;-73
2023/10/14 04:38:38;;;;;;;25.25;2.17;;;;;;;;;;5023777;28;20029;-72
2023/10/14 04:41:03;;;;;;;16.85;2.30;;;;;;;;;;5022930;28;20018;-72
2023/10/14 04:46:46;;;;;;;8.57;1.33;;;;;;;;;;5026714;28;20478;-72
2023/10/14 04:48:51;;;;;;;11.23;1.33;;;;;;;;;;5018444;28;20779;-72
2023/10/14 04:51:18;;;;;;;19.95;2.67;;;;;;;;;;5029258;28;20021;-72
2023/10/14 04:53:44;;;;;;;12.57;2.50;;;;;;;;;;5025789;28;20489;-72
2023/10/14 04:56:21;;;;;;;8.02;1.50;;;;;;;;;;5022075;28;20031;-72
2023/10/14 04:58:46;;;;;;;5.47;1.52;;;;;;;;;;5022630;28;20030;-72
2023/10/14 05:01:17;;;;;;;14.98;2.13;;;;;;;;;;5027362;28;20029;-72
2023/10/14 05:03:43;;;;;;;9.45;1.80;;;;;;;;;;5027206;28;20596;-72
2023/10/14 05:08:55;;;;;;;17.25;2.17;;;;;;;;;;5026435;28;20017;-72
2023/10/14 05:11:21;;;;;;;10.57;2.92;;;;;;;;;;5026143;28;20112;-72
2023/10/14 05:13:53;;;;;;;16.63;2.05;;;;;;;;;;5023752;28;20025;-72
2023/10/14 05:16:21;;;;;;;12.80;2.03;;;;;;;;;;5029941;28;20049;-72
2023/10/14 05:19:00;;;;;;;11.50;2.03;;;;;;;;;;5030771;28;20025;-72
2023/10/14 05:21:35;;;;;;;23.70;3.05;;;;;;;;;;5026744;28;20040;-72
2023/10/14 05:24:02;;;;;;;19.02;2.05;;;;;;;;;;5027482;28;20106;-72
2023/10/14 05:26:27;;;;;;;22.25;1.95;;;;;;;;;;5025328;28;20048;-72
2023/10/14 05:28:53;;;;;;;17.70;1.80;;;;;;;;;;5028883;28;20478;-72
2023/10/14 05:31:18;;;;;;;26.58;3.92;;;;;;;;;;5027500;28;20064;-72
2023/10/14 05:33:43;;;;;;;14.85;2.35;;;;;;;;;;5028597;28;20078;-72
2023/10/14 05:36:09;;;;;;;17.08;2.03;;;;;;;;;;5031865;28;20045;-72
2023/10/14 05:38:34;;;;;;;13.55;2.22;;;;;;;;;;5024810;28;20036;-72
2023/10/14 05:41:00;;;;;;;16.00;2.20;;;;;;;;;;5027886;28;20026;-72
2023/10/14 05:43:25;;;;;;;20.25;1.85;;;;;;;;;;5028884;28;20279;-72
2023/10/14 05:45:54;;;;;;;18.60;2.42;;;;;;;;;;5026631;28;20637;-72
2023/10/14 05:48:26;;;;;;;17.10;1.90;;;;;;;;;;5028438;28;20037;-72
2023/10/14 05:50:52;;;;;;;11.10;2.45;;;;;;;;;;5029850;28;20067;-72
2023/10/14 05:53:17;;;;;;;18.60;2.78;;;;;;;;;;5029974;28;20026;-72
2023/10/14 05:55:47;;;;;;;21.75;1.80;;;;;;;;;;5026951;28;20478;-72
2023/10/14 05:58:12;;;;;;;19.80;2.13;;;;;;;;;;5028966;28;20032;-72
2023/10/14 06:00:38;;;;;;;18.47;3.10;;;;;;;;;;5028149;28;20041;-72
2023/10/14 06:03:06;;;;;;;15.32;2.55;;;;;;;;;;5027140;28;20264;-72
2023/10/14 06:05:32;;;;;;;14.77;2.25;;;;;;;;;;5026793;28;20021;-72
2023/10/14 06:08:00;;;;;;;19.65;2.22;;;;;;;;;;5026699;28;20036;-72
2023/10/14 06:10:36;;;;;;;14.40;2.65;;;;;;;;;;5029568;28;20013;-72
2023/10/14 06:13:01;;;;;;;18.70;1.92;;;;;;;;;;5029081;28;20578;-72
2023/10/14 06:15:26;;;;;;;10.23;1.75;;;;;;;;;;5029444;28;20021;-72
2023/10/14 06:17:54;;;;;;;15.13;2.83;;;;;;;;;;5027240;28;20489;-72
2023/10/14 06:20:20;;;;;;;14.80;2.55;;;;;;;;;;5029146;28;20694;-72
2023/10/14 06:22:45;;;;;;;18.63;2.42;;;;;;;;;;5029728;28;20013;-72
2023/10/14 06:25:15;;;;;;;14.65;1.73;;;;;;;;;;5028688;28;20040;-72
2023/10/14 06:27:43;;;;;;;19.58;2.45;;;;;;;;;;5027856;28;20021;-72
2023/10/14 06:30:18;;;;;;;15.93;2.42;;;;;;;;;;5027338;28;20167;-72
2023/10/14 06:32:43;;;;;;;10.60;1.98;;;;;;;;;;5026268;28;20097;-72
2023/10/14 06:35:09;;;;;;;11.67;1.77;;;;;;;;;;5027781;28;20363;-72
2023/10/14 06:37:41;;;;;;;21.77;2.13;;;;;;;;;;5023715;28;20277;-72
2023/10/14 06:40:11;;;;;;;12.23;1.80;;;;;;;;;;5009459;28;20032;-72
2023/10/14 06:42:40;;;;;;;9.82;1.88;;;;;;;;;;5025535;28;20025;-72
2023/10/14 06:45:05;;;;;;;12.55;2.00;;;;;;;;;;5023245;28;20025;-72
2023/10/14 06:47:30;;;;;;;18.75;2.90;;;;;;;;;;5022374;28;20028;-71
2023/10/14 06:49:56;;;;;;;12.27;1.80;;;;;;;;;;5030108;28;20025;-72
2023/10/14 06:52:21;;;;;;;22.63;2.42;;;;;;;;;;5028670;28;20296;-71
2023/10/14 06:54:47;;;;;;;11.20;3.37;;;;;;;;;;5025186;28;20026;-71
2023/10/14 06:57:14;;;;;;;14.05;2.88;;;;;;;;;;5028585;28;20303;-71
2023/10/14 06:59:39;;;;;;;13.82;2.03;;;;;;;;;;5026676;28;20021;-71
2023/10/14 07:02:05;;;;;;;14.85;1.85;;;;;;;;;;5029825;28;20032;-71
2023/10/14 07:04:37;;;;;;;20.65;4.13;;;;;;;;;;5029166;28;20021;-71
2023/10/14 07:07:07;;;;;;;15.65;2.28;;;;;;;;;;5026379;28;20120;-71
2023/10/14 07:09:32;;;;;;;16.02;2.97;;;;;;;;;;5028296;28;20025;-71
2023/10/14 07:11:57;;;;;;;15.87;1.87;;;;;;;;;;5022538;28;20509;-72
2023/10/14 07:14:23;;;;;;;19.65;2.83;;;;;;;;;;5026173;28;20272;-71
2023/10/14 07:16:50;;;;;;;12.90;2.20;;;;;;;;;;5029429;28;20457;-71
2023/10/14 07:19:17;;;;;;;20.13;2.05;;;;;;;;;;5024337;28;20029;-71
2023/10/14 07:21:43;;;;;;;19.95;3.00;;;;;;;;;;5029971;28;20029;-71
2023/10/14 07:24:08;;;;;;;21.42;2.17;;;;;;;;;;5021815;28;20025;-71
2023/10/14 07:26:36;;;;;;;14.48;2.03;;;;;;;;;;5027829;28;20029;-71
2023/10/14 07:29:05;;;;;;;12.95;2.03;;;;;;;;;;5023581;28;20029;-71
2023/10/14 07:31:31;;;;;;;14.80;2.30;;;;;;;;;;5025209;28;20009;-70
2023/10/14 07:34:02;;;;;;;14.35;2.20;;;;;;;;;;5025941;28;20013;-70
2023/10/14 07:36:28;;;;;;;11.35;1.88;;;;;;;;;;5027109;28;20109;-71
2023/10/14 07:39:01;;;;;;;15.07;2.38;;;;;;;;;;5027862;28;20052;-70
2023/10/14 07:41:26;;;;;;;9.82;1.92;;;;;;;;;;5029957;28;20071;-70
2023/10/14 07:43:51;;;;;;;18.88;2.53;;;;;;;;;;5029671;28;20021;-70
2023/10/14 07:46:17;;;;;;;21.30;2.87;;;;;;;;;;5021478;28;20068;-71
2023/10/14 07:48:42;;;;;;;14.68;2.20;;;;;;;;;;5016542;28;20351;-70
2023/10/14 07:51:08;;;;;;;16.93;2.17;;;;;;;;;;5022114;28;20021;-70
2023/10/14 07:53:33;;;;;;;13.25;2.70;;;;;;;;;;5026891;28;20253;-70
2023/10/14 07:55:58;;;;;;;15.10;2.47;;;;;;;;;;5025266;28;20025;-70
2023/10/14 07:58:24;;;;;;;13.88;2.03;;;;;;;;;;5029850;28;20256;-70
2023/10/14 08:00:50;;;;;;;8.95;1.85;;;;;;;;;;5029424;28;20026;-70
2023/10/14 08:03:16;;;;;;;14.98;3.08;;;;;;;;;;5024494;28;20459;-71
2023/10/14 08:05:43;;;;;;;22.70;2.90;;;;;;;;;;5027788;28;20047;-70
2023/10/14 08:08:09;;;;;;;13.77;2.50;;;;;;;;;;5017636;28;20702;-70
2023/10/14 08:10:35;;;;;;;20.60;2.47;;;;;;;;;;5023310;28;20022;-71
2023/10/14 08:13:04;;;;;;;16.98;2.42;;;;;;;;;;5019697;28;20013;-70
2023/10/14 08:15:29;;;;;;;8.45;1.85;;;;;;;;;;5026717;28;20018;-70
2023/10/14 08:17:57;;;;;;;15.70;2.50;;;;;;;;;;5024157;28;20021;-70
2023/10/14 08:20:22;;;;;;;17.38;2.22;;;;;;;;;;5030062;28;20649;-70
2023/10/14 08:22:48;;;;;;;13.00;2.10;;;;;;;;;;5026166;28;20167;-71
2023/10/14 08:25:16;;;;;;;13.20;1.92;;;;;;;;;;5027195;28;20370;-70
2023/10/14 08:27:41;;;;;;;16.15;2.88;;;;;;;;;;5027613;28;20022;-70
2023/10/14 08:30:12;;;;;;;13.98;2.58;;;;;;;;;;5027529;28;20034;-70
2023/10/14 08:32:39;;;;;;;18.05;2.40;;;;;;;;;;5028022;28;20058;-70
2023/10/14 08:35:14;;;;;;;13.70;2.63;;;;;;;;;;5024022;28;20022;-70
2023/10/14 08:37:39;;;;;;;17.50;3.15;;;;;;;;;;5028575;28;20053;-70
2023/10/14 08:40:06;;;;;;;13.93;3.03;;;;;;;;;;5019757;28;20052;-70
2023/10/14 08:42:31;;;;;;;15.05;2.97;;;;;;;;;;5019848;28;20268;-70
2023/10/14 08:44:58;;;;;;;16.67;2.78;;;;;;;;;;5018322;28;20663;-70
2023/10/14 08:47:24;;;;;;;15.73;2.30;;;;;;;;;;5027888;28;20397;-70
2023/10/14 08:49:51;;;;;;;12.85;3.67;;;;;;;;;;5025182;28;20014;-70
2023/10/14 08:52:18;;;;;;;20.45;4.10;;;;;;;;;;5032256;28;20072;-70
2023/10/14 08:54:43;;;;;;;15.18;2.45;;;;;;;;;;5034169;28;20021;-70
2023/10/14 08:57:09;;;;;;;8.68;1.83;;;;;;;;;;5029209;28;20595;-70
2023/10/14 08:59:34;;;;;;;16.60;2.92;;;;;;;;;;5029089;28;20027;-70
2023/10/14 09:02:00;;;;;;;13.95;2.28;;;;;;;;;;5016220;28;20053;-70
2023/10/14 09:04:26;;;;;;;12.13;2.70;;;;;;;;;;5015345;28;20076;-70
2023/10/14 09:06:52;;;;;;;14.25;2.08;;;;;;;;;;5025822;28;20108;-71
2023/10/14 09:09:23;;;;;;;13.00;2.00;;;;;;;;;;5026999;28;20104;-69
2023/10/14 09:11:48;;;;;;;11.38;2.20;;;;;;;;;;5019804;28;20014;-69
2023/10/14 09:14:14;;;;;;;15.20;2.22;;;;;;;;;;5032264;28;20024;-69
2023/10/14 09:16:41;;;;;;;24.98;3.55;;;;;;;;;;5020688;28;20016;-69
2023/10/14 09:19:07;;;;;;;11.18;2.40;;;;;;;;;;5026165;28;20025;-70
2023/10/14 09:21:42;;;;;;;8.35;1.63;;;;;;;;;;5008802;28;20029;-69
2023/10/14 09:24:08;;;;;;;18.60;3.28;;;;;;;;;;5023284;28;20477;-69
2023/10/14 09:26:43;;;;;;;13.70;2.30;;;;;;;;;;5019120;28;20021;-69
2023/10/14 09:29:09;;;;;;;13.82;2.88;;;;;;;;;;5028186;28;20021;-69
2023/10/14 09:31:38;;;;;;;17.30;2.72;;;;;;;;;;5022601;28;20025;-69
2023/10/14 09:34:03;;;;;;;9.93;2.35;;;;;;;;;;5018625;28;20026;-70
2023/10/14 09:36:33;;;;;;;18.10;2.50;;;;;;;;;;5021871;28;20032;-69
2023/10/14 09:39:00;;;;;;;17.33;3.42;;;;;;;;;;5025978;28;20027;-69
2023/10/14 09:41:28;;;;;;;11.05;2.20;;;;;;;;;;5021621;28;20036;-69
2023/10/14 09:43:53;;;;;;;13.68;2.35;;;;;;;;;;5024336;28;20045;-69
2023/10/14 09:46:20;;;;;;;15.65;2.35;;;;;;;;;;5024499;28;20033;-70
2023/10/14 09:48:45;;;;;;;12.10;1.80;;;;;;;;;;5017628;28;20344;-70
2023/10/14 09:51:13;;;;;;;12.70;2.25;;;;;;;;;;5022503;28;20044;-70
2023/10/14 09:53:39;;;;;;;15.75;2.15;;;;;;;;;;5017913;28;20045;-69
2023/10/14 09:56:08;;;;;;;14.17;2.10;;;;;;;;;;5024332;28;20053;-70
2023/10/14 09:58:34;;;;;;;23.80;2.45;;;;;;;;;;5017879;28;20264;-70
2023/10/14 10:01:06;;;;;;;14.50;2.40;;;;;;;;;;5021864;28;20031;-70
2023/10/14 10:03:36;;;;;;;12.90;2.22;;;;;;;;;;5023320;28;20072;-70
2023/10/14 10:06:02;;;;;;;;;;;;;;;;;;5029997;28;20026;-70
2023/10/14 10:08:44;;;;;;;12.52;1.92;;;;;;;;;;5016964;28;19917;-70
2023/10/14 10:11:10;;;;;;;16.20;2.13;;;;;;;;;;5018733;28;20049;-70
2023/10/14 10:13:36;;;;;;;15.38;2.50;;;;;;;;;;5025189;28;20092;-70
2023/10/14 10:16:04;;;;;;;15.60;2.00;;;;;;;;;;5027562;28;20108;-70
2023/10/14 10:18:49;;;;;;;19.30;2.88;;;;;;;;;;5022912;28;20026;-70
2023/10/14 10:21:16;;;;;;;13.65;2.55;;;;;;;;;;5023183;28;20083;-70
2023/10/14 10:23:41;;;;;;;18.90;2.17;;;;;;;;;;5024958;28;20542;-70
2023/10/14 10:26:08;;;;;;;18.58;2.95;;;;;;;;;;5023211;28;20029;-70
2023/10/14 10:28:37;;;;;;;21.95;3.80;;;;;;;;;;5033072;28;20500;-70
2023/10/14 10:31:09;;;;;;;23.63;3.03;;;;;;;;;;5029617;28;20580;-70
2023/10/14 10:33:49;;;;;;;20.58;3.30;;;;;;;;;;5018402;28;20588;-70
2023/10/14 10:36:14;;;;;;;;;;;;;;;;;;5025012;28;20017;-70
2023/10/14 10:38:41;;;;;;;16.35;2.13;;;;;;;;;;5018453;28;19916;-70
2023/10/14 10:41:16;;;;;;;9.93;2.30;;;;;;;;;;5019281;28;20489;-70
2023/10/14 10:43:43;;;;;;;15.30;2.60;;;;;;;;;;5025982;28;20052;-70
2023/10/14 10:46:27;;;;;;;12.68;2.15;;;;;;;;;;5029453;28;20021;-70
2023/10/14 10:48:52;;;;;;;18.20;2.05;;;;;;;;;;5025880;28;20049;-70
2023/10/14 10:51:17;;;;;;;10.87;2.20;;;;;;;;;;5021567;28;20060;-70
2023/10/14 10:53:43;;;;;;;10.75;2.25;;;;;;;;;;5024813;28;20336;-70
2023/10/14 10:56:09;;;;;;;17.70;1.83;;;;;;;;;;5019468;28;20040;-70
2023/10/14 10:58:34;;;;;;;20.77;3.42;;;;;;;;;;5027151;28;20032;-70
2023/10/14 11:01:01;;;;;;;17.33;3.08;;;;;;;;;;5032393;28;20033;-70
2023/10/14 11:03:26;;;;;;;19.02;1.70;;;;;;;;;;5029937;28;20028;-71
2023/10/14 11:05:53;;;;;;;14.60;2.00;;;;;;;;;;5021367;28;20021;-71
2023/10/14 11:08:18;;;;;;;17.17;2.33;;;;;;;;;;5026964;28;20079;-71
2023/10/14 11:10:44;;;;;;;16.25;2.70;;;;;;;;;;5030299;28;20021;-71
2023/10/14 11:13:13;;;;;;;15.65;3.13;;;;;;;;;;5029354;28;20084;-71
2023/10/14 11:15:39;;;;;;;9.90;1.83;;;;;;;;;;5029315;28;20013;-71
2023/10/14 11:18:04;;;;;;;16.70;4.13;;;;;;;;;;5030445;28;20151;-71
2023/10/14 11:20:35;;;;;;;13.80;2.58;;;;;;;;;;5029196;28;20116;-73
2023/10/14 11:23:01;;;;;;;15.57;1.95;;;;;;;;;;5030411;28;20013;-70
2023/10/14 11:25:30;;;;;;;24.50;3.80;;;;;;;;;;5027331;28;20033;-71
2023/10/14 11:27:58;;;;;;;20.85;2.80;;;;;;;;;;5030550;28;20033;-71
2023/10/14 11:30:26;;;;;;;13.75;2.72;;;;;;;;;;5022814;28;20554;-71
2023/10/14 11:32:52;;;;;;;27.48;2.58;;;;;;;;;;5026687;28;20423;-71
2023/10/14 11:35:19;;;;;;;12.25;2.17;;;;;;;;;;5026580;28;20021;-71
2023/10/14 11:37:50;;;;;;;11.40;2.25;;;;;;;;;;5030307;28;20072;-72
2023/10/14 11:40:16;;;;;;;9.35;1.77;;;;;;;;;;5030486;28;20026;-72
2023/10/14 11:42:44;;;;;;;18.38;2.10;;;;;;;;;;5029826;28;20016;-71
2023/10/14 11:45:09;;;;;;;13.82;2.42;;;;;;;;;;5022624;28;20079;-71
2023/10/14 11:47:38;;;;;;;14.07;2.83;;;;;;;;;;5023411;28;20018;-71
2023/10/14 11:50:11;;;;;;;14.70;2.22;;;;;;;;;;5019921;28;20010;-71
2023/10/14 11:52:36;;;;;;;12.73;1.67;;;;;;;;;;5029929;28;20041;-71
2023/10/14 11:55:01;;;;;;;14.43;2.30;;;;;;;;;;5029809;28;20068;-72
2023/10/14 11:57:26;;;;;;;13.55;2.42;;;;;;;;;;5029718;28;20258;-72
2023/10/14 11:59:52;;;;;;;12.02;1.98;;;;;;;;;;5029319;28;20032;-72
2023/10/14 12:02:18;;;;;;;14.65;3.08;;;;;;;;;;5024086;28;20037;-71
2023/10/14 12:04:43;;;;;;;21.95;1.70;;;;;;;;;;5025746;28;20017;-72
2023/10/14 12:07:09;;;;;;;11.27;1.88;;;;;;;;;;5024261;28;20474;-72
2023/10/14 12:09:34;;;;;;;11.43;2.40;;;;;;;;;;5016559;28;20010;-72
2023/10/14 12:11:59;;;;;;;9.17;2.07;;;;;;;;;;5019874;28;20010;-72
2023/10/14 12:14:25;;;;;;;6.38;1.70;;;;;;;;;;5016803;28;20264;-72
2023/10/14 12:16:51;;;;;;;9.05;2.17;;;;;;;;;;5024501;28;20049;-72
2023/10/14 12:19:18;;;;;;;9.37;1.93;;;;;;;;;;5041021;28;20460;-72
2023/10/14 12:21:43;;;;;;;12.90;1.55;;;;;;;;;;5038235;28;20325;-72
2023/10/14 12:24:09;;;;;;;9.47;1.80;;;;;;;;;;5038695;28;20025;-72
2023/10/14 12:26:36;;;;;;;11.20;2.00;;;;;;;;;;5038425;28;20332;-72
2023/10/14 12:29:07;;;;;;;15.55;1.65;;;;;;;;;;5039107;28;20513;-72
2023/10/14 12:31:32;;;;;;;15.93;1.90;;;;;;;;;;5040331;28;20024;-72
2023/10/14 12:34:01;;;;;;;11.83;1.47;;;;;;;;;;5046015;28;20017;-72
2023/10/14 12:36:27;;;;;;;7.88;1.98;;;;;;;;;;5047497;28;20298;-72
2023/10/14 12:38:52;;;;;;;12.80;1.58;;;;;;;;;;5037101;28;20462;-73
2023/10/14 12:41:21;;;;;;;11.90;2.53;;;;;;;;;;5039736;28;20647;-72
2023/10/14 12:43:50;;;;;;;6.57;1.50;;;;;;;;;;5037430;28;20252;-72
2023/10/14 12:46:19;;;;;;;12.98;1.40;;;;;;;;;;5043849;28;20021;-72
2023/10/14 12:48:46;;;;;;;9.20;1.70;;;;;;;;;;5042357;28;20098;-72
2023/10/14 12:51:12;;;;;;;9.23;1.48;;;;;;;;;;5031020;28;20025;-72
2023/10/14 12:53:46;;;;;;;12.43;2.30;;;;;;;;;;5042560;28;20025;-72
2023/10/14 12:56:15;;;;;;;9.13;3.20;;;;;;;;;;5046509;28;20027;-72
2023/10/14 12:58:42;;;;;;;13.07;1.75;;;;;;;;;;5038637;28;20580;-72
2023/10/14 13:01:13;;;;;;;9.40;1.58;;;;;;;;;;5045368;28;20376;-73
2023/10/14 13:03:38;;;;;;;17.80;2.05;;;;;;;;;;5038644;28;20371;-72
2023/10/14 13:06:06;;;;;;;7.32;1.35;;;;;;;;;;5044047;28;20075;-72
2023/10/14 13:08:31;;;;;;;7.40;2.95;;;;;;;;;;5044358;28;20075;-73
2023/10/14 13:10:56;;;;;;;11.02;2.40;;;;;;;;;;5040287;28;20017;-73
2023/10/14 13:13:23;;;;;;;13.10;2.75;;;;;;;;;;5039139;28;20017;-73
2023/10/14 13:15:53;;;;;;;13.13;2.10;;;;;;;;;;5043169;28;20035;-73
2023/10/14 13:18:19;;;;;;;7.78;1.48;;;;;;;;;;5028590;28;20064;-73
2023/10/14 13:20:45;;;;;;;14.32;2.55;;;;;;;;;;5027662;28;20014;-73
2023/10/14 13:23:12;;;;;;;15.82;2.75;;;;;;;;;;5026523;28;20520;-73
2023/10/14 13:25:37;;;;;;;12.65;2.05;;;;;;;;;;5022509;28;20596;-73
2023/10/14 13:28:08;;;;;;;10.20;1.88;;;;;;;;;;5023920;28;20025;-73
2023/10/14 13:30:33;;;;;;;;;;;;;;;;;;5024291;28;20010;-73
2023/10/14 13:32:58;;;;;;;12.48;1.60;;;;;;;;;;5026096;28;19916;-72
2023/10/14 13:35:23;;;;;;;8.43;1.58;;;;;;;;;;5026232;28;20462;-73
2023/10/14 13:37:49;;;;;;;7.25;2.20;;;;;;;;;;5026046;28;20025;-73
2023/10/14 13:40:20;;;;;;;13.88;2.30;;;;;;;;;;5014416;28;20013;-73
2023/10/14 13:42:53;;;;;;;10.40;2.60;;;;;;;;;;5026790;28;20502;-73
2023/10/14 13:45:19;;;;;;;8.18;2.08;;;;;;;;;;5027380;28;20082;-73
2023/10/14 13:47:45;;;;;;;14.05;2.67;;;;;;;;;;5025651;28;20006;-73
2023/10/14 13:50:11;;;;;;;12.27;3.60;;;;;;;;;;5023635;28;20025;-73
2023/10/14 13:52:39;;;;;;;16.45;2.50;;;;;;;;;;5026515;28;20035;-73
2023/10/14 13:55:06;;;;;;;15.55;1.88;;;;;;;;;;5026403;28;20474;-73
2023/10/14 13:57:32;;;;;;;8.68;2.20;;;;;;;;;;5025947;28;20029;-73
2023/10/14 13:59:57;;;;;;;11.88;2.33;;;;;;;;;;5028475;28;20017;-73
2023/10/14 14:02:23;;;;;;;8.50;1.58;;;;;;;;;;5030737;28;20021;-73
2023/10/14 14:04:49;;;;;;;10.45;1.70;;;;;;;;;;5025528;28;20025;-73
2023/10/14 14:07:24;;;;;;;10.98;1.42;;;;;;;;;;5027098;28;20029;-74
2023/10/14 14:09:53;;;;;;;13.88;2.78;;;;;;;;;;5027930;28;20571;-73
2023/10/14 14:12:21;;;;;;;4.97;1.25;;;;;;;;;;5030640;28;20022;-74
2023/10/14 14:14:46;;;;;;;8.45;1.67;;;;;;;;;;5026327;28;20014;-73
2023/10/14 14:17:12;;;;;;;13.73;2.00;;;;;;;;;;5025302;28;20075;-73
2023/10/14 14:19:39;;;;;;;11.05;1.60;;;;;;;;;;5048900;28;20656;-73
2023/10/14 14:22:05;;;;;;;9.93;1.73;;;;;;;;;;5049706;28;20024;-73
2023/10/14 14:24:33;;;;;;;15.65;2.35;;;;;;;;;;5042952;28;20025;-73
2023/10/14 14:26:58;;;;;;;9.50;1.92;;;;;;;;;;5047761;28;20151;-73
2023/10/14 14:29:23;;;;;;;12.63;1.90;;;;;;;;;;5047528;28;20055;-73
2023/10/14 14:31:49;;;;;;;16.63;1.77;;;;;;;;;;5045643;28;20291;-73
2023/10/14 14:34:14;;;;;;;12.25;2.75;;;;;;;;;;5047584;28;20755;-73
2023/10/14 14:36:44;;;;;;;13.63;2.20;;;;;;;;;;5044171;28;20028;-73
2023/10/14 14:39:10;;;;;;;4.40;1.85;;;;;;;;;;5043162;28;20017;-73
2023/10/14 14:41:36;;;;;;;14.07;1.83;;;;;;;;;;5043548;28;20022;-73
2023/10/14 14:44:01;;;;;;;9.35;1.73;;;;;;;;;;5045608;28;20374;-73
2023/10/14 14:46:29;;;;;;;15.30;1.60;;;;;;;;;;5030342;28;20017;-73
2023/10/14 14:48:55;;;;;;;7.38;1.95;;;;;;;;;;5045147;28;20017;-73
2023/10/14 14:51:21;;;;;;;18.15;2.15;;;;;;;;;;5040793;28;20017;-73
2023/10/14 14:53:46;;;;;;;15.85;3.05;;;;;;;;;;5042146;28;20075;-73
2023/10/14 14:56:11;;;;;;;21.33;2.67;;;;;;;;;;5043472;28;20029;-73
2023/10/14 14:58:37;;;;;;;12.40;2.30;;;;;;;;;;5045956;28;20021;-73
2023/10/14 15:01:02;;;;;;;14.05;2.17;;;;;;;;;;5047899;28;20029;-73
2023/10/14 15:03:29;;;;;;;11.18;2.28;;;;;;;;;;5041798;28;20021;-73